Terminal Aerodrome Forecast
Issued by NWS Portland, ME

Home | Current Version | Previous Version | Text Only | Print | Product List | Glossary On
Versions: 1 2 3 4 5 6 7 8 9 10 11 12 13 14 15 16 17 18
000
FTUS41 KGYX 041736
TAFPWM
TAF
KPWM 041736Z 0418/0518 16005KT P6SM SCT060 BKN200
     FM050100 20004KT P6SM BKN200
     FM051300 31006KT P6SM SCT060=

USA.gov is the U.S. government's official web portal to all federal, state and local government web resources and services.